Time;durP1;ratioP1;P1;durP2;ratioP2;P2;SDS_P1;SDS_P2;PMS_P1;PMS_P2;Temp;Humidity;BMP_temperature;BMP_pressure;BME280_temperature;BME280_humidity;BME280_pressure;Samples;Min_cycle;Max_cycle;Signal;HPM_P1;HPM_P2
2022/04/15 00:00:44;;;;;;;75.40;36.53;;;;;;;;;;5053783;28;20420;-53
2022/04/15 00:03:11;;;;;;;50.90;29.27;;;;;;;;;;5055148;28;20413;-52
2022/04/15 00:05:40;;;;;;;56.13;31.40;;;;;;;;;;5053775;28;20416;-52
2022/04/15 00:08:07;;;;;;;56.10;31.60;;;;;;;;;;5054903;28;20399;-53
2022/04/15 00:10:33;;;;;;;50.47;30.73;;;;;;;;;;5054796;28;21043;-52
2022/04/15 00:13:00;;;;;;;54.40;30.53;;;;;;;;;;5054770;28;20737;-53
2022/04/15 00:15:27;;;;;;;45.27;29.37;;;;;;;;;;5054796;28;20407;-52
2022/04/15 00:17:54;;;;;;;53.23;29.83;;;;;;;;;;5054751;28;20408;-52
2022/04/15 00:20:20;;;;;;;49.70;31.23;;;;;;;;;;5054581;28;20455;-51
2022/04/15 00:22:47;;;;;;;41.57;27.03;;;;;;;;;;5053947;28;20547;-52
2022/04/15 00:25:13;;;;;;;43.30;28.00;;;;;;;;;;5054584;28;20411;-57
2022/04/15 00:27:40;;;;;;;42.53;26.40;;;;;;;;;;5054463;28;20400;-51
2022/04/15 00:30:10;;;;;;;43.90;26.77;;;;;;;;;;5054380;28;20459;-51
2022/04/15 00:32:36;;;;;;;38.70;25.00;;;;;;;;;;5054470;28;20414;-50
2022/04/15 00:35:03;;;;;;;41.43;25.47;;;;;;;;;;5054398;28;20741;-52
2022/04/15 00:37:29;;;;;;;45.27;27.50;;;;;;;;;;5052969;28;20912;-52
2022/04/15 00:39:55;;;;;;;41.93;25.80;;;;;;;;;;5054469;28;20412;-53
2022/04/15 00:42:22;;;;;;;41.00;25.77;;;;;;;;;;5054166;28;20419;-51
2022/04/15 00:44:51;;;;;;;44.33;27.30;;;;;;;;;;5053015;28;20420;-51
2022/04/15 00:47:40;;;;;;;42.90;26.17;;;;;;;;;;5052990;28;20859;-50
2022/04/15 00:50:06;;;;;;;47.83;28.93;;;;;;;;;;5075790;28;20558;-52
2022/04/15 00:52:40;;;;;;;50.23;29.00;;;;;;;;;;5052681;28;20837;-50
2022/04/15 00:55:06;;;;;;;43.10;27.80;;;;;;;;;;5053841;28;20930;-50
2022/04/15 00:57:34;;;;;;;45.47;27.67;;;;;;;;;;5053811;28;20483;-51
2022/04/15 01:00:01;;;;;;;38.53;25.57;;;;;;;;;;5053824;28;20408;-53
2022/04/15 01:02:28;;;;;;;47.13;26.83;;;;;;;;;;5053694;28;20414;-53
2022/04/15 01:04:55;;;;;;;45.30;27.27;;;;;;;;;;5053658;28;20408;-52
2022/04/15 01:07:24;;;;;;;46.50;27.10;;;;;;;;;;5053613;28;20435;-56
2022/04/15 01:09:51;;;;;;;42.67;28.30;;;;;;;;;;5053661;28;20499;-55
2022/04/15 01:12:21;;;;;;;46.53;27.13;;;;;;;;;;5053694;28;20927;-52
2022/04/15 01:14:47;;;;;;;46.77;27.40;;;;;;;;;;5053640;28;20428;-54
2022/04/15 01:17:13;;;;;;;44.83;26.90;;;;;;;;;;5052147;28;20404;-52
2022/04/15 01:19:40;;;;;;;50.10;28.40;;;;;;;;;;5051934;28;20463;-51
2022/04/15 01:22:09;;;;;;;47.03;28.93;;;;;;;;;;5053406;28;20420;-52
2022/04/15 01:24:38;;;;;;;45.30;27.07;;;;;;;;;;5053545;28;20396;-51
2022/04/15 01:27:04;;;;;;;43.83;28.43;;;;;;;;;;5052028;28;20503;-53
2022/04/15 01:29:36;;;;;;;55.57;29.67;;;;;;;;;;5053341;28;20753;-53
2022/04/15 01:32:03;;;;;;;50.40;29.40;;;;;;;;;;5053325;28;20423;-51
2022/04/15 01:34:29;;;;;;;45.60;27.40;;;;;;;;;;5053275;28;20410;-51
2022/04/15 01:36:55;;;;;;;47.33;27.53;;;;;;;;;;5051903;28;20511;-54
2022/04/15 01:39:22;;;;;;;40.00;27.53;;;;;;;;;;5051745;28;20404;-50
2022/04/15 01:41:48;;;;;;;43.63;27.50;;;;;;;;;;5053455;28;20780;-53
2022/04/15 01:44:15;;;;;;;40.83;25.00;;;;;;;;;;5052971;28;20552;-52
2022/04/15 01:46:44;;;;;;;44.70;26.67;;;;;;;;;;5053045;28;20408;-51
2022/04/15 01:49:10;;;;;;;44.30;27.63;;;;;;;;;;5053099;28;20434;-52
2022/04/15 01:51:36;;;;;;;48.57;29.17;;;;;;;;;;5052826;28;20475;-51
2022/04/15 01:54:05;;;;;;;47.43;29.03;;;;;;;;;;5052506;28;20400;-52
2022/04/15 01:56:31;;;;;;;51.43;27.80;;;;;;;;;;5051592;28;20912;-50
2022/04/15 01:58:57;;;;;;;52.63;28.70;;;;;;;;;;5052794;28;20829;-50
2022/04/15 02:01:23;;;;;;;55.00;26.70;;;;;;;;;;5052777;28;20714;-52
2022/04/15 02:03:49;;;;;;;48.23;27.57;;;;;;;;;;5052852;28;20864;-52
2022/04/15 02:06:15;;;;;;;47.13;27.37;;;;;;;;;;5052802;28;20477;-52
2022/04/15 02:08:41;;;;;;;52.37;26.90;;;;;;;;;;5052540;28;20892;-52
2022/04/15 02:11:10;;;;;;;47.93;28.13;;;;;;;;;;5052560;28;20466;-51
2022/04/15 02:13:36;;;;;;;49.87;28.80;;;;;;;;;;5052631;28;20426;-50
2022/04/15 02:16:02;;;;;;;51.53;28.97;;;;;;;;;;5052602;28;20959;-52
2022/04/15 02:18:28;;;;;;;43.87;27.47;;;;;;;;;;5051228;28;20469;-52
2022/04/15 02:20:54;;;;;;;44.70;27.53;;;;;;;;;;5052374;28;20460;-52
2022/04/15 02:23:20;;;;;;;47.20;27.93;;;;;;;;;;5052647;28;20415;-54
2022/04/15 02:25:46;;;;;;;48.43;28.47;;;;;;;;;;5052624;28;20437;-50
2022/04/15 02:28:12;;;;;;;49.40;30.17;;;;;;;;;;5051019;28;20423;-50
2022/04/15 02:30:38;;;;;;;50.07;29.87;;;;;;;;;;5051061;28;20896;-49
2022/04/15 02:33:04;;;;;;;52.20;29.77;;;;;;;;;;5052333;28;20474;-52
2022/04/15 02:35:30;;;;;;;47.03;28.20;;;;;;;;;;5052342;28;20444;-51
2022/04/15 02:37:56;;;;;;;54.13;29.30;;;;;;;;;;5052186;28;20408;-51
2022/04/15 02:40:22;;;;;;;42.80;25.23;;;;;;;;;;5052241;28;20407;-50
2022/04/15 02:42:48;;;;;;;47.07;27.70;;;;;;;;;;5052446;28;20470;-54
2022/04/15 02:45:14;;;;;;;44.30;26.60;;;;;;;;;;5052257;28;20868;-50
2022/04/15 02:47:41;;;;;;;46.70;26.17;;;;;;;;;;5052360;28;20426;-52
2022/04/15 02:50:07;;;;;;;44.50;23.23;;;;;;;;;;5052060;28;20510;-51
2022/04/15 02:52:36;;;;;;;32.53;21.50;;;;;;;;;;5052076;28;20403;-53
2022/04/15 02:55:02;;;;;;;36.60;21.67;;;;;;;;;;5052305;28;20416;-52
2022/04/15 02:57:28;;;;;;;27.93;19.77;;;;;;;;;;5052180;28;20439;-49
2022/04/15 02:59:54;;;;;;;34.17;19.77;;;;;;;;;;5050832;28;20423;-53
2022/04/15 03:02:20;;;;;;;34.00;20.67;;;;;;;;;;5052238;28;20908;-51
2022/04/15 03:04:49;;;;;;;31.47;21.47;;;;;;;;;;5053208;28;20533;-53
2022/04/15 03:07:15;;;;;;;36.80;21.00;;;;;;;;;;5055075;28;20964;-51
2022/04/15 03:09:41;;;;;;;29.63;20.33;;;;;;;;;;5035848;28;20530;-52
2022/04/15 03:12:07;;;;;;;33.13;21.33;;;;;;;;;;5034578;28;20793;-50
2022/04/15 03:14:33;;;;;;;32.90;21.37;;;;;;;;;;5035748;28;20412;-51
2022/04/15 03:16:59;;;;;;;28.37;20.17;;;;;;;;;;5035732;28;20400;-52
2022/04/15 03:19:25;;;;;;;35.53;22.50;;;;;;;;;;5035545;28;20931;-55
2022/04/15 03:21:51;;;;;;;32.87;22.90;;;;;;;;;;5035721;28;20413;-51
2022/04/15 03:24:17;;;;;;;30.73;21.73;;;;;;;;;;5034519;28;20828;-51
2022/04/15 03:26:43;;;;;;;36.00;23.20;;;;;;;;;;5035583;28;20456;-53
2022/04/15 03:29:09;;;;;;;34.30;23.17;;;;;;;;;;5035554;28;20170;-52
2022/04/15 03:31:35;;;;;;;35.50;23.40;;;;;;;;;;5035360;28;20478;-52
2022/04/15 03:34:04;;;;;;;36.80;23.10;;;;;;;;;;5035522;28;20436;-57
2022/04/15 03:36:30;;;;;;;36.13;24.40;;;;;;;;;;5035343;28;20935;-55
2022/04/15 03:38:56;;;;;;;37.40;24.40;;;;;;;;;;5035443;28;20753;-50
2022/04/15 03:41:22;;;;;;;33.90;22.83;;;;;;;;;;5035430;28;20405;-51
2022/04/15 03:43:50;;;;;;;33.83;22.23;;;;;;;;;;5035458;28;20413;-50
2022/04/15 03:46:16;;;;;;;34.77;21.90;;;;;;;;;;5035408;28;20431;-51
2022/04/15 03:48:42;;;;;;;34.30;22.87;;;;;;;;;;5033837;28;20772;-50
2022/04/15 03:51:11;;;;;;;33.97;23.10;;;;;;;;;;5035080;28;20471;-49
2022/04/15 03:53:37;;;;;;;43.60;24.00;;;;;;;;;;5035149;28;20408;-51
2022/04/15 03:56:03;;;;;;;39.33;23.23;;;;;;;;;;5035096;28;20423;-52
2022/04/15 03:58:29;;;;;;;33.90;23.67;;;;;;;;;;5033752;28;20416;-54
2022/04/15 04:00:55;;;;;;;31.13;21.23;;;;;;;;;;5034913;28;20508;-50
2022/04/15 04:03:21;;;;;;;34.23;22.73;;;;;;;;;;5034319;28;20460;-50
2022/04/15 04:05:47;;;;;;;32.37;21.97;;;;;;;;;;5034206;28;20417;-52
2022/04/15 04:08:14;;;;;;;31.40;21.00;;;;;;;;;;5033858;28;20444;-50
2022/04/15 04:10:40;;;;;;;33.03;23.00;;;;;;;;;;5033948;28;20478;-50
2022/04/15 04:13:06;;;;;;;34.53;22.83;;;;;;;;;;5033818;28;20808;-52
2022/04/15 04:15:32;;;;;;;36.80;23.60;;;;;;;;;;5033569;28;20475;-50
2022/04/15 04:17:58;;;;;;;34.93;23.60;;;;;;;;;;5033768;28;20784;-52
2022/04/15 04:20:25;;;;;;;36.83;24.40;;;;;;;;;;5033432;28;20444;-52
2022/04/15 04:22:51;;;;;;;36.53;22.90;;;;;;;;;;5033897;28;20436;-50
2022/04/15 04:25:17;;;;;;;38.47;23.90;;;;;;;;;;5033678;28;20404;-50
2022/04/15 04:27:43;;;;;;;35.40;23.80;;;;;;;;;;5032620;28;20432;-51
2022/04/15 04:30:12;;;;;;;34.43;22.50;;;;;;;;;;5033422;28;20468;-51
2022/04/15 04:32:38;;;;;;;32.37;23.13;;;;;;;;;;5033437;28;20435;-50
2022/04/15 04:35:05;;;;;;;33.17;22.10;;;;;;;;;;5032132;28;20396;-52
2022/04/15 04:37:31;;;;;;;31.93;23.40;;;;;;;;;;5033320;28;20404;-50
2022/04/15 04:39:57;;;;;;;36.20;24.33;;;;;;;;;;5033365;28;20409;-49
2022/04/15 04:42:24;;;;;;;35.83;22.10;;;;;;;;;;5033407;28;20412;-51
2022/04/15 04:44:51;;;;;;;35.90;23.27;;;;;;;;;;5033388;28;20415;-56
2022/04/15 04:47:17;;;;;;;33.00;21.93;;;;;;;;;;5033413;28;20420;-51
2022/04/15 04:49:43;;;;;;;27.80;20.00;;;;;;;;;;5032968;28;20460;-50
2022/04/15 04:52:09;;;;;;;23.83;16.90;;;;;;;;;;5033017;28;20955;-51
2022/04/15 04:54:39;;;;;;;22.70;17.03;;;;;;;;;;5032953;28;20812;-50
2022/04/15 04:57:05;;;;;;;24.00;16.67;;;;;;;;;;5033806;28;20404;-52
2022/04/15 04:59:32;;;;;;;22.83;15.37;;;;;;;;;;5033753;28;20421;-50
2022/04/15 05:01:58;;;;;;;20.27;15.07;;;;;;;;;;5032801;28;20404;-49
2022/04/15 05:04:24;;;;;;;19.90;15.17;;;;;;;;;;5033788;28;20455;-50
2022/04/15 05:06:51;;;;;;;25.70;16.10;;;;;;;;;;5033869;28;20925;-59
2022/04/15 05:09:17;;;;;;;23.23;16.40;;;;;;;;;;5034054;28;20416;-52
2022/04/15 05:11:43;;;;;;;22.40;15.67;;;;;;;;;;5033631;28;20463;-51
2022/04/15 05:14:10;;;;;;;21.73;14.47;;;;;;;;;;5033680;28;20401;-53
2022/04/15 05:16:36;;;;;;;23.13;14.73;;;;;;;;;;5032260;28;20460;-57
2022/04/15 05:19:02;;;;;;;18.33;14.40;;;;;;;;;;5033541;28;20517;-49
2022/04/15 05:21:28;;;;;;;18.50;13.83;;;;;;;;;;5033315;28;20984;-51
2022/04/15 05:23:54;;;;;;;31.07;13.50;;;;;;;;;;5033343;28;20411;-53
2022/04/15 05:26:20;;;;;;;23.80;14.60;;;;;;;;;;5033552;28;20417;-50
2022/04/15 05:28:46;;;;;;;19.70;12.83;;;;;;;;;;5031572;28;20420;-54
2022/04/15 05:31:12;;;;;;;20.80;12.70;;;;;;;;;;5033213;28;20474;-52
2022/04/15 05:33:38;;;;;;;20.90;14.50;;;;;;;;;;5033217;28;20400;-49
2022/04/15 05:36:04;;;;;;;19.73;14.13;;;;;;;;;;5033075;28;20909;-50
2022/04/15 05:38:30;;;;;;;19.83;14.37;;;;;;;;;;5033224;28;20488;-50
2022/04/15 05:40:57;;;;;;;21.03;13.43;;;;;;;;;;5033043;28;20423;-49
2022/04/15 05:43:23;;;;;;;19.97;12.17;;;;;;;;;;5033065;28;20424;-54
2022/04/15 05:45:49;;;;;;;19.23;12.90;;;;;;;;;;5033351;28;20511;-52
2022/04/15 05:48:15;;;;;;;12.80;10.10;;;;;;;;;;5031744;28;20448;-53
2022/04/15 05:50:41;;;;;;;17.90;11.33;;;;;;;;;;5032881;28;20511;-50
2022/04/15 05:53:07;;;;;;;14.17;11.63;;;;;;;;;;5032944;28;20440;-50
2022/04/15 05:55:35;;;;;;;17.33;11.80;;;;;;;;;;5032870;28;20423;-50
2022/04/15 05:58:01;;;;;;;16.03;11.63;;;;;;;;;;5031681;28;20486;-51
2022/04/15 06:00:27;;;;;;;16.97;11.23;;;;;;;;;;5033033;28;20887;-49
2022/04/15 06:02:53;;;;;;;15.63;10.40;;;;;;;;;;5032751;28;20404;-51
2022/04/15 06:05:19;;;;;;;13.97;11.37;;;;;;;;;;5032851;28;20765;-54
2022/04/15 06:07:45;;;;;;;20.30;11.77;;;;;;;;;;5032771;28;20467;-51
2022/04/15 06:10:11;;;;;;;20.70;12.10;;;;;;;;;;5032602;28;20956;-53
2022/04/15 06:13:04;;;;;;;12.50;10.57;;;;;;;;;;5031370;28;20429;-50
2022/04/15 06:15:31;;;;;;;13.73;11.60;;;;;;;;;;5032769;28;20412;-50
2022/04/15 06:18:01;;;;;;;13.97;9.90;;;;;;;;;;5032489;28;20758;-53
2022/04/15 06:20:30;;;;;;;17.13;11.07;;;;;;;;;;5030878;28;20483;-51
2022/04/15 06:22:57;;;;;;;13.07;10.60;;;;;;;;;;5032574;28;20408;-50
2022/04/15 06:25:23;;;;;;;16.83;10.77;;;;;;;;;;5031106;28;20423;-55
2022/04/15 06:27:52;;;;;;;11.87;9.37;;;;;;;;;;5032690;28;20416;-51
2022/04/15 06:30:21;;;;;;;15.40;10.03;;;;;;;;;;5032516;28;21041;-50
2022/04/15 06:32:47;;;;;;;14.10;10.37;;;;;;;;;;5032677;28;20404;-51
2022/04/15 06:35:13;;;;;;;10.67;9.17;;;;;;;;;;5031167;28;20509;-50
2022/04/15 06:37:40;;;;;;;12.67;10.20;;;;;;;;;;5032462;28;20416;-56
2022/04/15 06:40:06;;;;;;;9.03;8.13;;;;;;;;;;5035617;28;20413;-51
2022/04/15 06:42:32;;;;;;;11.40;8.80;;;;;;;;;;5036392;28;20412;-53
2022/04/15 06:44:59;;;;;;;9.87;8.87;;;;;;;;;;5035094;28;20443;-51
2022/04/15 06:47:27;;;;;;;9.97;8.67;;;;;;;;;;5036636;28;20431;-51
2022/04/15 06:49:54;;;;;;;10.43;9.33;;;;;;;;;;5036206;28;20918;-50
2022/04/15 06:52:20;;;;;;;12.53;9.17;;;;;;;;;;5036592;28;20475;-49
2022/04/15 06:54:46;;;;;;;8.97;8.00;;;;;;;;;;5036522;28;20765;-49
2022/04/15 06:57:12;;;;;;;7.73;6.80;;;;;;;;;;5036016;28;20413;-52
2022/04/15 06:59:38;;;;;;;8.90;8.10;;;;;;;;;;5035857;28;20400;-51
2022/04/15 07:02:05;;;;;;;8.47;7.67;;;;;;;;;;5036265;28;20408;-52
2022/04/15 07:04:32;;;;;;;9.00;8.10;;;;;;;;;;5035979;28;20416;-52
2022/04/15 07:06:58;;;;;;;9.07;8.20;;;;;;;;;;5035417;28;20901;-48
2022/04/15 07:09:27;;;;;;;9.00;8.10;;;;;;;;;;5035140;28;20491;-56
2022/04/15 07:11:54;;;;;;;9.10;7.70;;;;;;;;;;5035202;28;20421;-51
2022/04/15 07:14:20;;;;;;;10.00;8.17;;;;;;;;;;5035060;28;20415;-52
2022/04/15 07:16:46;;;;;;;9.20;7.10;;;;;;;;;;5034973;28;20412;-54
2022/04/15 07:19:12;;;;;;;7.67;6.73;;;;;;;;;;5034988;28;20408;-52
2022/04/15 07:21:38;;;;;;;7.67;6.97;;;;;;;;;;5034679;28;20471;-52
2022/04/15 07:24:05;;;;;;;6.93;6.23;;;;;;;;;;5033400;28;20413;-53
2022/04/15 07:26:31;;;;;;;8.20;7.37;;;;;;;;;;5033134;28;20420;-54
2022/04/15 07:28:58;;;;;;;5.67;5.27;;;;;;;;;;5034617;28;20440;-53
2022/04/15 07:31:24;;;;;;;5.50;5.10;;;;;;;;;;5034715;28;20476;-53
2022/04/15 07:33:53;;;;;;;6.13;5.73;;;;;;;;;;5034794;28;20401;-50
2022/04/15 07:36:42;;;;;;;5.70;5.30;;;;;;;;;;5034508;28;20412;-52
2022/04/15 07:39:09;;;;;;;7.23;6.50;;;;;;;;;;5034204;28;21140;-55
2022/04/15 07:41:38;;;;;;;6.77;6.17;;;;;;;;;;5034286;28;20431;-55
2022/04/15 07:44:05;;;;;;;7.73;7.03;;;;;;;;;;5034329;28;20413;-52
2022/04/15 07:46:32;;;;;;;7.67;6.87;;;;;;;;;;5034543;28;20412;-51
2022/04/15 07:48:58;;;;;;;7.60;6.90;;;;;;;;;;5033070;28;20512;-52
2022/04/15 07:51:24;;;;;;;7.33;6.67;;;;;;;;;;5032136;28;20562;-52
2022/04/15 07:53:50;;;;;;;5.40;5.10;;;;;;;;;;5034426;28;20401;-53
2022/04/15 07:56:16;;;;;;;6.17;5.73;;;;;;;;;;5033241;28;20424;-53
2022/04/15 07:58:42;;;;;;;8.03;6.80;;;;;;;;;;5033896;28;20458;-52
2022/04/15 08:01:09;;;;;;;5.67;5.20;;;;;;;;;;5034107;28;20972;-51
2022/04/15 08:03:36;;;;;;;5.90;5.50;;;;;;;;;;5033987;28;20428;-53
2022/04/15 08:06:02;;;;;;;6.17;5.57;;;;;;;;;;5034004;28;20450;-51
2022/04/15 08:08:28;;;;;;;7.47;6.87;;;;;;;;;;5033755;28;20409;-50
2022/04/15 08:10:54;;;;;;;6.90;6.23;;;;;;;;;;5034046;28;20475;-51
2022/04/15 08:13:23;;;;;;;6.80;6.20;;;;;;;;;;5034047;28;20455;-55
2022/04/15 08:15:53;;;;;;;6.13;5.73;;;;;;;;;;5034149;28;20432;-52
2022/04/15 08:18:19;;;;;;;6.17;5.77;;;;;;;;;;5032659;28;20417;-57
2022/04/15 08:20:45;;;;;;;9.13;6.40;;;;;;;;;;5033558;28;20452;-50
2022/04/15 08:23:11;;;;;;;6.70;6.10;;;;;;;;;;5033839;28;20397;-51
2022/04/15 08:25:37;;;;;;;6.70;5.73;;;;;;;;;;5034752;28;20921;-53
2022/04/15 08:28:03;;;;;;;7.03;6.43;;;;;;;;;;5034392;28;20405;-51
2022/04/15 08:30:33;;;;;;;6.40;5.90;;;;;;;;;;5034533;28;20472;-53
2022/04/15 08:32:59;;;;;;;6.73;6.23;;;;;;;;;;5033268;28;20427;-51
2022/04/15 08:35:27;;;;;;;6.90;6.20;;;;;;;;;;5034380;28;20420;-56
2022/04/15 08:37:53;;;;;;;5.30;4.90;;;;;;;;;;5033055;28;20516;-57
2022/04/15 08:40:19;;;;;;;5.57;5.17;;;;;;;;;;5034506;28;20808;-50
2022/04/15 08:42:45;;;;;;;7.20;5.60;;;;;;;;;;5034070;28;20407;-56
2022/04/15 08:45:13;;;;;;;6.30;5.90;;;;;;;;;;5034298;28;20409;-50
2022/04/15 08:47:39;;;;;;;6.17;5.77;;;;;;;;;;5034230;28;20409;-54
2022/04/15 08:50:06;;;;;;;6.03;5.63;;;;;;;;;;5034026;28;20964;-56
2022/04/15 08:52:32;;;;;;;5.83;5.43;;;;;;;;;;5032943;28;20885;-52
2022/04/15 08:55:01;;;;;;;4.60;4.37;;;;;;;;;;5033134;28;20412;-52
2022/04/15 08:57:27;;;;;;;5.60;5.27;;;;;;;;;;5033023;28;20931;-55
2022/04/15 08:59:54;;;;;;;5.80;5.40;;;;;;;;;;5031598;28;20459;-54
2022/04/15 09:02:31;;;;;;;5.57;5.07;;;;;;;;;;5031802;28;20419;-53
2022/04/15 09:04:57;;;;;;;5.20;4.90;;;;;;;;;;5032832;28;20423;-51
2022/04/15 09:07:23;;;;;;;4.93;4.60;;;;;;;;;;5032527;28;20409;-51
2022/04/15 09:09:58;;;;;;;5.07;4.77;;;;;;;;;;5033001;28;20506;-51
2022/04/15 09:12:25;;;;;;;4.83;4.60;;;;;;;;;;5032456;28;20412;-53
2022/04/15 09:14:53;;;;;;;4.37;4.17;;;;;;;;;;5032674;28;20436;-51
2022/04/15 09:17:23;;;;;;;4.70;4.50;;;;;;;;;;5032908;28;20436;-50
2022/04/15 09:19:51;;;;;;;4.90;4.40;;;;;;;;;;5032610;28;20535;-52
2022/04/15 09:22:18;;;;;;;5.07;4.80;;;;;;;;;;5032747;28;20931;-50
2022/04/15 09:24:44;;;;;;;4.80;4.50;;;;;;;;;;5032561;28;20463;-49
2022/04/15 09:27:10;;;;;;;4.90;4.70;;;;;;;;;;5032283;28;21292;-52
2022/04/15 09:29:38;;;;;;;5.20;4.97;;;;;;;;;;5032805;28;20409;-52
2022/04/15 09:32:09;;;;;;;7.60;5.23;;;;;;;;;;5033309;28;20424;-54
2022/04/15 09:34:52;;;;;;;4.70;4.50;;;;;;;;;;5033353;28;20408;-54
2022/04/15 09:37:19;;;;;;;4.63;4.43;;;;;;;;;;5032015;28;20460;-54
2022/04/15 09:40:06;;;;;;;4.83;4.50;;;;;;;;;;5033088;28;20461;-50
2022/04/15 09:42:36;;;;;;;4.00;3.80;;;;;;;;;;5033211;28;20824;-53
2022/04/15 09:45:20;;;;;;;4.03;3.93;;;;;;;;;;5033059;28;20435;-53
2022/04/15 09:47:53;;;;;;;4.43;4.23;;;;;;;;;;5033264;28;20416;-68
2022/04/15 09:50:30;;;;;;;4.50;4.30;;;;;;;;;;5032998;28;20475;-58
2022/04/15 09:53:07;;;;;;;4.43;4.23;;;;;;;;;;5031726;28;20448;-56
2022/04/15 09:55:35;;;;;;;4.47;4.27;;;;;;;;;;5032899;28;20416;-52
2022/04/15 09:58:05;;;;;;;4.03;3.80;;;;;;;;;;5033067;28;20431;-50
2022/04/15 10:00:31;;;;;;;4.57;4.37;;;;;;;;;;5032656;28;20935;-55
2022/04/15 10:02:58;;;;;;;4.70;4.40;;;;;;;;;;5032334;28;20420;-58
2022/04/15 10:05:24;;;;;;;4.60;4.40;;;;;;;;;;5032754;28;20462;-60
2022/04/15 10:07:50;;;;;;;4.57;4.43;;;;;;;;;;5033085;28;20497;-50
2022/04/15 10:10:17;;;;;;;5.00;4.80;;;;;;;;;;5032746;28;20997;-51
2022/04/15 10:12:44;;;;;;;4.80;4.50;;;;;;;;;;5032844;28;20917;-51
2022/04/15 10:15:11;;;;;;;4.93;4.63;;;;;;;;;;5032551;28;20412;-51
2022/04/15 10:17:40;;;;;;;3.80;3.70;;;;;;;;;;5032828;28;20412;-52
2022/04/15 10:20:07;;;;;;;5.00;4.70;;;;;;;;;;5032595;28;20460;-51
2022/04/15 10:22:35;;;;;;;5.90;5.50;;;;;;;;;;5032661;28;20531;-52
2022/04/15 10:25:01;;;;;;;5.87;5.37;;;;;;;;;;5032695;28;20838;-51
2022/04/15 10:27:30;;;;;;;5.40;5.10;;;;;;;;;;5032622;28;20404;-55
2022/04/15 10:30:23;;;;;;;5.30;4.97;;;;;;;;;;5032503;28;20460;-50
2022/04/15 10:32:57;;;;;;;5.10;4.80;;;;;;;;;;5030826;28;20789;-53
2022/04/15 10:35:24;;;;;;;5.30;4.90;;;;;;;;;;5032534;28;20472;-57
2022/04/15 10:37:55;;;;;;;5.50;5.10;;;;;;;;;;5032490;28;20470;-53
2022/04/15 10:40:22;;;;;;;5.03;4.83;;;;;;;;;;5032397;28;20409;-50
2022/04/15 10:42:48;;;;;;;6.37;5.90;;;;;;;;;;5032500;28;20547;-53
2022/04/15 10:45:27;;;;;;;6.10;5.70;;;;;;;;;;5032392;28;20409;-52
2022/04/15 10:48:00;;;;;;;5.67;5.30;;;;;;;;;;5031313;28;20466;-52
2022/04/15 10:50:30;;;;;;;6.13;5.73;;;;;;;;;;5032294;28;20798;-51
2022/04/15 10:53:15;;;;;;;5.50;5.10;;;;;;;;;;5032657;28;20979;-52
2022/04/15 10:55:49;;;;;;;6.20;5.80;;;;;;;;;;5032293;28;20447;-50
2022/04/15 10:58:15;;;;;;;5.97;5.57;;;;;;;;;;5032205;28;20504;-53
2022/04/15 11:03:40;;;;;;;6.33;5.90;;;;;;;;;;4998981;28;20772;-55
2022/04/15 11:06:09;;;;;;;7.10;6.50;;;;;;;;;;5032229;28;20500;-51
2022/04/15 11:08:51;;;;;;;6.50;6.10;;;;;;;;;;5032304;28;20401;-50
2022/04/15 11:11:18;;;;;;;7.10;6.40;;;;;;;;;;5032262;28;20987;-51
2022/04/15 11:13:44;;;;;;;7.00;6.50;;;;;;;;;;5030915;28;20421;-51
2022/04/15 11:16:13;;;;;;;6.80;6.30;;;;;;;;;;5032065;28;20944;-52
2022/04/15 11:18:55;;;;;;;7.87;7.17;;;;;;;;;;5032039;28;20407;-51
2022/04/15 11:21:32;;;;;;;6.60;6.20;;;;;;;;;;5031778;28;20463;-50
2022/04/15 11:24:05;;;;;;;7.53;6.93;;;;;;;;;;5032042;28;20400;-59
2022/04/15 11:26:32;;;;;;;8.10;7.40;;;;;;;;;;5033928;28;20424;-51
2022/04/15 11:28:59;;;;;;;7.83;7.13;;;;;;;;;;5035821;28;20400;-51
2022/04/15 11:31:25;;;;;;;7.63;7.03;;;;;;;;;;5034284;28;20551;-53
2022/04/15 11:33:51;;;;;;;8.17;7.47;;;;;;;;;;5035616;28;20534;-50
2022/04/15 11:36:18;;;;;;;7.50;6.90;;;;;;;;;;5035711;28;20511;-50
2022/04/15 11:38:45;;;;;;;6.33;5.83;;;;;;;;;;5035549;28;20407;-56
2022/04/15 11:41:15;;;;;;;8.63;7.93;;;;;;;;;;5035259;28;20487;-58
2022/04/15 11:43:42;;;;;;;8.27;7.50;;;;;;;;;;5049483;28;20462;-57
2022/04/15 11:46:08;;;;;;;6.67;6.17;;;;;;;;;;5058268;28;20876;-53
2022/04/15 11:48:34;;;;;;;8.23;7.53;;;;;;;;;;5054233;28;20403;-54
2022/04/15 11:51:01;;;;;;;8.13;7.37;;;;;;;;;;5054809;28;20862;-56
2022/04/15 11:53:27;;;;;;;7.53;6.93;;;;;;;;;;5054309;28;20799;-58
2022/04/15 11:55:58;;;;;;;8.27;7.57;;;;;;;;;;5054349;28;20419;-53
2022/04/15 11:58:25;;;;;;;13.20;8.00;;;;;;;;;;5054487;28;20466;-56
2022/04/15 12:00:58;;;;;;;6.90;6.30;;;;;;;;;;5054997;28;20415;-58
2022/04/15 12:03:24;;;;;;;7.13;6.60;;;;;;;;;;5069849;28;20453;-58
2022/04/15 12:05:51;;;;;;;8.83;7.93;;;;;;;;;;5054450;28;20396;-57
2022/04/15 12:08:18;;;;;;;8.73;7.60;;;;;;;;;;5054888;28;20423;-58
2022/04/15 12:10:45;;;;;;;9.27;8.40;;;;;;;;;;5069752;28;20831;-57
2022/04/15 12:13:12;;;;;;;9.53;7.30;;;;;;;;;;5054278;28;20420;-58
2022/04/15 12:15:38;;;;;;;8.03;7.30;;;;;;;;;;5052305;28;20396;-58
2022/04/15 12:18:05;;;;;;;8.40;7.60;;;;;;;;;;5053964;28;20411;-59
2022/04/15 12:20:33;;;;;;;8.97;7.50;;;;;;;;;;5054466;28;20458;-57
2022/04/15 12:22:59;;;;;;;7.43;6.80;;;;;;;;;;5053256;28;20420;-58
2022/04/15 12:25:26;;;;;;;8.07;7.37;;;;;;;;;;5053635;28;20458;-60
2022/04/15 12:27:56;;;;;;;9.20;8.40;;;;;;;;;;5054211;28;20776;-61
2022/04/15 12:30:39;;;;;;;9.77;8.77;;;;;;;;;;5054042;28;20470;-57
2022/04/15 12:33:10;;;;;;;8.70;7.80;;;;;;;;;;5054253;28;20406;-58
2022/04/15 12:35:36;;;;;;;9.17;8.03;;;;;;;;;;5052463;28;20511;-59
2022/04/15 12:38:03;;;;;;;11.50;8.20;;;;;;;;;;5053719;28;20414;-60
2022/04/15 12:40:30;;;;;;;8.73;7.83;;;;;;;;;;5054312;28;20438;-59
2022/04/15 12:42:56;;;;;;;9.87;8.80;;;;;;;;;;5053828;28;20756;-56
2022/04/15 12:45:23;;;;;;;9.70;8.80;;;;;;;;;;5051841;28;20473;-59
2022/04/15 12:48:07;;;;;;;10.17;9.10;;;;;;;;;;5053770;28;20541;-58
2022/04/15 12:50:35;;;;;;;10.27;9.27;;;;;;;;;;5069292;28;20459;-57
2022/04/15 12:53:03;;;;;;;12.00;10.10;;;;;;;;;;5052961;28;20415;-57
2022/04/15 12:55:29;;;;;;;9.30;8.50;;;;;;;;;;5051779;28;20400;-59
2022/04/15 12:57:59;;;;;;;11.17;10.17;;;;;;;;;;5052848;28;20481;-58
2022/04/15 13:00:26;;;;;;;9.20;8.30;;;;;;;;;;5052906;28;20874;-58
2022/04/15 13:02:52;;;;;;;10.13;9.13;;;;;;;;;;5052702;28;20543;-59
2022/04/15 13:05:25;;;;;;;11.87;10.23;;;;;;;;;;5052713;28;20415;-58
2022/04/15 13:07:52;;;;;;;11.67;10.13;;;;;;;;;;5052678;28;20407;-56
2022/04/15 13:10:20;;;;;;;12.73;10.83;;;;;;;;;;5052837;28;20465;-57
2022/04/15 13:12:46;;;;;;;11.97;10.77;;;;;;;;;;5052766;28;20808;-59
2022/04/15 13:15:13;;;;;;;11.77;10.50;;;;;;;;;;5052404;28;20412;-57
2022/04/15 13:17:39;;;;;;;12.20;10.60;;;;;;;;;;5052737;28;20969;-57
2022/04/15 13:20:06;;;;;;;13.53;11.50;;;;;;;;;;5052397;28;20847;-56
2022/04/15 13:22:32;;;;;;;15.07;11.77;;;;;;;;;;5051390;28;20470;-57
2022/04/15 13:24:58;;;;;;;12.33;11.03;;;;;;;;;;5052357;28;20404;-59
2022/04/15 13:27:24;;;;;;;13.07;11.03;;;;;;;;;;5052452;28;20431;-56
2022/04/15 13:29:52;;;;;;;11.83;10.63;;;;;;;;;;5052374;28;20969;-57
2022/04/15 13:32:19;;;;;;;13.43;11.67;;;;;;;;;;5036912;28;20905;-61
2022/04/15 13:34:45;;;;;;;12.80;9.73;;;;;;;;;;5031923;28;20412;-58
2022/04/15 13:37:11;;;;;;;13.33;10.97;;;;;;;;;;5033126;28;20439;-56
2022/04/15 13:39:37;;;;;;;13.30;11.00;;;;;;;;;;5033146;28;20470;-58
2022/04/15 13:42:03;;;;;;;12.80;11.40;;;;;;;;;;5033106;28;20901;-57
2022/04/15 13:44:31;;;;;;;13.33;11.77;;;;;;;;;;5033085;28;20774;-57
2022/04/15 13:46:57;;;;;;;11.77;10.50;;;;;;;;;;5036468;28;20416;-56
2022/04/15 13:49:23;;;;;;;12.90;10.57;;;;;;;;;;5046520;28;20418;-60
2022/04/15 13:51:50;;;;;;;12.77;11.40;;;;;;;;;;5052587;28;20809;-55
2022/04/15 13:57:01;;;;;;;15.00;11.67;;;;;;;;;;5032887;28;20927;-56
2022/04/15 13:59:27;;;;;;;15.60;11.50;;;;;;;;;;5032959;28;20403;-57
2022/04/15 14:01:53;;;;;;;15.50;11.80;;;;;;;;;;5031531;28;20418;-56
2022/04/15 14:04:19;;;;;;;14.03;9.50;;;;;;;;;;5040095;28;20466;-56
2022/04/15 14:06:46;;;;;;;14.87;10.73;;;;;;;;;;5033206;28;20846;-56
2022/04/15 14:09:13;;;;;;;11.80;10.60;;;;;;;;;;5031432;28;20474;-57
2022/04/15 14:11:40;;;;;;;13.27;10.73;;;;;;;;;;5031281;28;20482;-54
2022/04/15 14:14:13;;;;;;;11.73;10.53;;;;;;;;;;5037617;28;20755;-60
2022/04/15 14:16:39;;;;;;;13.30;11.20;;;;;;;;;;5033075;28;20428;-59
2022/04/15 14:19:06;;;;;;;10.97;9.83;;;;;;;;;;5037772;28;20439;-56
2022/04/15 14:21:32;;;;;;;13.53;11.37;;;;;;;;;;5032407;28;20488;-56
2022/04/15 14:23:59;;;;;;;12.37;11.07;;;;;;;;;;5031263;28;20412;-60
2022/04/15 14:26:25;;;;;;;12.63;11.40;;;;;;;;;;5032482;28;20404;-56
2022/04/15 14:28:51;;;;;;;13.80;11.13;;;;;;;;;;5037009;28;20424;-58
2022/04/15 14:31:17;;;;;;;12.23;10.80;;;;;;;;;;5040907;28;20464;-58
2022/04/15 14:33:44;;;;;;;13.53;10.90;;;;;;;;;;5042646;28;20772;-60
2022/04/15 14:36:10;;;;;;;14.03;10.93;;;;;;;;;;5042228;28;20891;-55